Time;durP1;ratioP1;P1;durP2;ratioP2;P2;SDS_P1;SDS_P2;PMS_P1;PMS_P2;Temp;Humidity;BMP_temperature;BMP_pressure;BME280_temperature;BME280_humidity;BME280_pressure;Samples;Min_cycle;Max_cycle;Signal;HPM_P1;HPM_P2
2022/10/14 00:00:22;;;;;;;17.65;11.38;;;13.40;99.90;;;;;;5072563;28;20126;-85
2022/10/14 00:02:48;;;;;;;18.17;10.95;;;13.30;99.90;;;;;;5072782;28;20036;-85
2022/10/14 00:05:14;;;;;;;20.88;12.45;;;13.30;99.90;;;;;;5071477;28;20035;-85
2022/10/14 00:07:40;;;;;;;20.60;12.45;;;13.40;99.90;;;;;;5086945;22;20052;-69
2022/10/14 00:10:06;;;;;;;17.98;12.05;;;13.40;99.90;;;;;;5073016;28;20392;-69
2022/10/14 00:12:33;;;;;;;18.88;12.90;;;13.30;99.90;;;;;;5072722;28;20089;-69
2022/10/14 00:14:59;;;;;;;18.25;12.02;;;13.30;99.90;;;;;;5054967;28;20116;-69
2022/10/14 00:17:25;;;;;;;20.23;10.98;;;13.30;99.90;;;;;;5073068;28;20043;-69
2022/10/14 00:19:51;;;;;;;21.58;12.02;;;13.30;99.90;;;;;;5072493;28;20450;-69
2022/10/14 00:22:17;;;;;;;17.42;10.90;;;13.30;99.90;;;;;;5072470;28;20048;-69
2022/10/14 00:24:43;;;;;;;17.27;10.52;;;13.30;99.90;;;;;;5072853;28;20029;-69
2022/10/14 00:27:09;;;;;;;16.23;10.65;;;13.30;99.90;;;;;;5054513;28;20477;-69
2022/10/14 00:29:35;;;;;;;16.23;10.45;;;13.30;99.90;;;;;;5054574;28;20036;-69
2022/10/14 00:32:01;;;;;;;17.02;12.18;;;13.30;99.90;;;;;;5054144;28;20036;-69
2022/10/14 00:34:27;;;;;;;19.23;11.00;;;13.30;99.90;;;;;;5054653;28;20366;-69
2022/10/14 00:36:54;;;;;;;20.83;12.52;;;13.30;99.90;;;;;;5072150;28;20036;-69
2022/10/14 00:39:20;;;;;;;21.85;13.15;;;13.30;99.90;;;;;;5072220;28;20034;-69
2022/10/14 00:41:46;;;;;;;18.27;12.13;;;13.30;99.90;;;;;;5072130;28;20024;-69
2022/10/14 00:44:12;;;;;;;19.95;12.63;;;13.30;99.90;;;;;;5054285;28;20043;-70
2022/10/14 00:46:40;;;;;;;18.25;11.45;;;13.30;99.90;;;;;;5037222;28;20080;-70
2022/10/14 00:49:26;;;;;;;18.63;12.60;;;13.30;99.90;;;;;;5054287;28;20021;-70
2022/10/14 00:52:04;;;;;;;24.45;14.02;;;13.30;99.90;;;;;;5071811;28;20040;-70
2022/10/14 00:54:38;;;;;;;16.30;11.77;;;13.30;99.90;;;;;;5072006;28;20028;-70
2022/10/14 00:57:04;;;;;;;19.52;11.60;;;13.30;99.90;;;;;;5053883;28;20031;-70
2022/10/14 00:59:32;;;;;;;20.33;11.85;;;13.30;99.90;;;;;;5053905;28;20119;-70
2022/10/14 01:01:58;;;;;;;25.83;13.90;;;13.30;99.90;;;;;;5071611;28;20020;-69
2022/10/14 01:04:25;;;;;;;25.08;14.27;;;13.30;99.90;;;;;;5054048;28;20120;-70
2022/10/14 01:07:02;;;;;;;19.92;12.75;;;13.30;99.90;;;;;;5071546;28;20020;-70
2022/10/14 01:09:44;;;;;;;19.42;12.60;;;13.30;99.90;;;;;;5071483;28;20063;-70
2022/10/14 01:12:24;;;;;;;21.67;13.73;;;13.30;99.90;;;;;;5053495;28;20111;-69
2022/10/14 01:15:09;;;;;;;21.45;14.73;;;13.30;99.90;;;;;;5053703;28;20028;-70
2022/10/14 01:18:16;;;;;;;16.38;12.18;;;13.30;99.90;;;;;;5071744;28;20104;-69
2022/10/14 01:21:07;;;;;;;23.30;14.65;;;13.30;99.90;;;;;;5037414;28;20040;-69
2022/10/14 01:23:51;;;;;;;24.90;14.65;;;13.30;99.90;;;;;;5071522;28;20041;-70
2022/10/14 01:26:38;;;;;;;22.98;14.40;;;13.30;99.90;;;;;;5053627;28;20025;-69
2022/10/14 01:29:40;;;;;;;21.05;14.73;;;13.30;99.90;;;;;;5071187;28;20031;-70
2022/10/14 01:32:20;;;;;;;20.35;14.15;;;13.30;99.90;;;;;;5060207;28;20047;-70
2022/10/14 01:35:02;;;;;;;22.02;14.18;;;13.30;99.90;;;;;;5071289;28;20055;-69
2022/10/14 01:37:32;;;;;;;23.65;15.55;;;13.30;99.90;;;;;;5071138;28;20107;-70
2022/10/14 01:40:04;;;;;;;28.60;16.08;;;13.30;99.90;;;;;;5053003;28;20029;-69
2022/10/14 01:42:36;;;;;;;21.45;14.77;;;13.30;99.90;;;;;;5071354;28;20029;-70
2022/10/14 01:45:22;;;;;;;23.48;15.43;;;13.40;99.90;;;;;;5052967;28;20032;-70
2022/10/14 01:47:50;;;;;;;25.52;16.27;;;13.40;99.90;;;;;;5071081;28;20028;-70
2022/10/14 01:50:19;;;;;;;20.80;14.57;;;13.30;99.90;;;;;;5070997;28;20315;-69
2022/10/14 01:52:54;;;;;;;26.17;15.77;;;13.30;99.90;;;;;;5052994;28;20481;-69
2022/10/14 01:55:24;;;;;;;23.90;16.13;;;13.30;99.90;;;;;;5052960;28;20048;-69
2022/10/14 01:57:53;;;;;;;23.40;16.00;;;13.30;99.90;;;;;;5052855;28;20485;-70
2022/10/14 02:00:20;;;;;;;26.23;17.10;;;13.40;99.90;;;;;;5052910;28;20055;-69
2022/10/14 02:02:46;;;;;;;34.22;17.95;;;13.40;99.90;;;;;;5070931;28;20480;-69
2022/10/14 02:05:34;;;;;;;28.45;17.45;;;13.30;99.90;;;;;;5071202;28;20036;-69
2022/10/14 02:08:15;;;;;;;27.98;16.88;;;13.30;99.90;;;;;;5070880;28;20401;-69
2022/10/14 02:11:00;;;;;;;22.70;15.20;;;13.30;99.90;;;;;;5052773;28;20131;-70
2022/10/14 02:13:36;;;;;;;27.10;17.65;;;13.30;99.90;;;;;;5053112;28;20036;-69
2022/10/14 02:16:11;;;;;;;26.80;17.63;;;13.30;99.90;;;;;;5052865;28;20042;-69
2022/10/14 02:18:48;;;;;;;27.98;17.98;;;13.30;99.90;;;;;;5052726;28;20025;-69
2022/10/14 02:21:25;;;;;;;30.92;18.42;;;13.30;99.90;;;;;;5052922;28;20028;-70
2022/10/14 02:24:06;;;;;;;25.15;17.88;;;13.30;99.90;;;;;;5052802;28;20124;-68
2022/10/14 02:26:35;;;;;;;23.73;17.13;;;13.30;99.90;;;;;;5052762;28;20044;-69
2022/10/14 02:29:04;;;;;;;26.25;18.38;;;13.30;99.90;;;;;;5052876;28;20064;-70
2022/10/14 02:31:33;;;;;;;25.20;16.55;;;13.30;99.90;;;;;;5052606;28;20094;-69
2022/10/14 02:34:02;;;;;;;26.95;18.50;;;13.30;99.90;;;;;;5070847;28;20111;-69
2022/10/14 02:36:29;;;;;;;22.85;15.60;;;13.30;99.90;;;;;;5052677;28;20029;-70
2022/10/14 02:38:57;;;;;;;24.67;16.90;;;13.30;99.90;;;;;;5052558;28;20085;-69
2022/10/14 02:41:27;;;;;;;26.55;17.52;;;13.30;99.90;;;;;;5070691;28;20462;-69
2022/10/14 02:43:53;;;;;;;24.77;17.90;;;13.30;99.90;;;;;;5052550;28;20093;-69
2022/10/14 02:46:21;;;;;;;28.40;19.40;;;13.40;99.90;;;;;;5070725;28;20054;-69
2022/10/14 02:48:48;;;;;;;26.27;18.15;;;13.30;99.90;;;;;;5052498;28;20489;-69
2022/10/14 02:51:14;;;;;;;26.77;18.75;;;13.30;99.90;;;;;;5052563;28;20036;-69
2022/10/14 02:53:42;;;;;;;29.08;18.92;;;13.30;99.90;;;;;;5052573;28;20404;-69
2022/10/14 02:56:10;;;;;;;22.83;16.52;;;13.30;99.90;;;;;;5055826;28;20058;-69
2022/10/14 02:58:36;;;;;;;29.08;18.00;;;13.30;99.90;;;;;;5074628;28;20021;-69
2022/10/14 03:01:05;;;;;;;25.73;17.77;;;13.30;99.90;;;;;;5056300;28;20053;-69
2022/10/14 03:03:31;;;;;;;28.17;19.13;;;13.40;99.90;;;;;;5056273;28;20064;-69
2022/10/14 03:05:58;;;;;;;25.95;18.45;;;13.40;99.90;;;;;;5039442;28;20033;-70
2022/10/14 03:08:25;;;;;;;27.50;18.75;;;13.40;99.90;;;;;;5055961;28;20029;-69
2022/10/14 03:10:54;;;;;;;29.10;19.75;;;13.40;99.90;;;;;;5055892;28;20036;-69
2022/10/14 03:13:21;;;;;;;31.00;20.95;;;13.40;99.90;;;;;;5055801;28;20037;-69
2022/10/14 03:15:50;;;;;;;30.88;19.67;;;13.40;99.90;;;;;;5055924;28;20070;-69
2022/10/14 03:18:17;;;;;;;30.25;21.02;;;13.40;99.90;;;;;;5074135;28;20419;-69
2022/10/14 03:20:46;;;;;;;29.20;19.27;;;13.30;99.90;;;;;;5055675;28;20028;-69
2022/10/14 03:23:17;;;;;;;28.88;19.73;;;13.30;99.90;;;;;;5055666;28;20432;-69
2022/10/14 03:25:47;;;;;;;29.60;19.92;;;13.40;99.90;;;;;;5055688;28;20036;-69
2022/10/14 03:28:18;;;;;;;34.45;21.25;;;13.40;99.90;;;;;;5073766;28;20559;-69
2022/10/14 03:30:50;;;;;;;30.85;20.70;;;13.40;99.90;;;;;;5055465;28;20532;-69
2022/10/14 03:33:30;;;;;;;31.65;20.13;;;13.30;99.90;;;;;;5055626;28;20025;-69
2022/10/14 03:36:09;;;;;;;26.08;19.17;;;13.30;99.90;;;;;;5055335;28;20032;-69
2022/10/14 03:38:48;;;;;;;28.95;20.67;;;13.40;99.90;;;;;;5055422;28;20031;-69
2022/10/14 03:41:24;;;;;;;30.08;20.45;;;13.30;99.90;;;;;;5055337;28;20036;-69
2022/10/14 03:43:51;;;;;;;26.65;19.10;;;13.30;99.90;;;;;;5055358;28;20035;-69
2022/10/14 03:46:17;;;;;;;29.38;20.77;;;13.30;99.90;;;;;;5073386;28;20020;-69
2022/10/14 03:48:43;;;;;;;28.88;20.27;;;13.30;99.90;;;;;;5055247;28;20028;-69
2022/10/14 03:51:09;;;;;;;28.10;19.85;;;13.30;99.90;;;;;;5055120;28;20038;-69
2022/10/14 03:53:35;;;;;;;30.38;20.98;;;13.30;99.90;;;;;;5055086;28;20029;-69
2022/10/14 03:56:01;;;;;;;27.25;18.52;;;13.30;99.90;;;;;;5055223;28;20090;-69
2022/10/14 03:58:29;;;;;;;30.73;19.88;;;13.30;99.90;;;;;;5055116;28;20035;-69
2022/10/14 04:01:01;;;;;;;24.73;18.17;;;13.30;99.90;;;;;;5039271;28;20119;-69
2022/10/14 04:03:40;;;;;;;27.15;19.98;;;13.30;99.90;;;;;;5055118;28;20040;-69
2022/10/14 04:06:06;;;;;;;29.83;20.17;;;13.30;99.90;;;;;;5054218;28;20032;-69
2022/10/14 04:08:32;;;;;;;34.10;20.63;;;13.30;99.90;;;;;;5054727;28;20566;-71
2022/10/14 04:11:07;;;;;;;28.83;19.75;;;13.30;99.90;;;;;;5055080;28;20515;-70
2022/10/14 04:13:36;;;;;;;29.23;19.33;;;13.30;99.90;;;;;;5054729;28;20028;-69
2022/10/14 04:16:05;;;;;;;26.58;18.65;;;13.30;99.90;;;;;;5054649;28;20020;-70
2022/10/14 04:18:52;;;;;;;29.63;19.13;;;13.30;99.90;;;;;;5071998;28;20033;-70
2022/10/14 04:21:21;;;;;;;28.58;19.08;;;13.30;99.90;;;;;;5054559;28;20111;-69
2022/10/14 04:23:50;;;;;;;27.73;19.65;;;13.30;99.90;;;;;;5054627;28;20032;-69
2022/10/14 04:26:16;;;;;;;30.50;20.10;;;13.30;99.90;;;;;;5054542;28;20029;-69
2022/10/14 04:28:44;;;;;;;26.95;18.65;;;13.30;99.90;;;;;;5054575;28;20118;-70
2022/10/14 04:31:14;;;;;;;29.13;19.75;;;13.30;99.90;;;;;;5054437;28;20042;-69
2022/10/14 04:33:52;;;;;;;29.67;19.42;;;13.30;99.90;;;;;;5039522;28;20058;-69
2022/10/14 04:36:25;;;;;;;28.35;18.33;;;13.30;99.90;;;;;;5054303;28;20024;-69
2022/10/14 04:38:53;;;;;;;29.23;19.38;;;13.30;99.90;;;;;;5072301;28;20534;-69
2022/10/14 04:41:19;;;;;;;27.77;18.73;;;13.30;99.90;;;;;;5054261;28;20028;-69
2022/10/14 04:43:47;;;;;;;26.73;18.05;;;13.30;99.90;;;;;;5054338;28;20033;-69
2022/10/14 04:46:21;;;;;;;27.85;18.88;;;13.30;99.90;;;;;;5054057;28;20040;-70
2022/10/14 04:48:49;;;;;;;28.23;18.85;;;13.30;99.90;;;;;;5054103;28;20029;-68
2022/10/14 04:51:16;;;;;;;27.75;18.63;;;13.30;99.90;;;;;;5054505;28;20043;-68
2022/10/14 04:54:01;;;;;;;26.85;18.58;;;13.30;99.90;;;;;;5053880;28;20029;-69
2022/10/14 04:56:34;;;;;;;28.10;18.77;;;13.30;99.90;;;;;;5053967;28;20025;-70
2022/10/14 04:59:02;;;;;;;26.38;18.10;;;13.30;99.90;;;;;;5054091;28;20029;-69
2022/10/14 05:01:47;;;;;;;27.55;18.60;;;13.30;99.90;;;;;;5053857;28;20488;-70
2022/10/14 05:04:14;;;;;;;24.98;17.25;;;13.30;99.90;;;;;;5053717;28;20039;-69
2022/10/14 05:06:41;;;;;;;27.75;18.25;;;13.30;99.90;;;;;;5053638;28;20489;-69
2022/10/14 05:09:10;;;;;;;24.65;17.73;;;13.30;99.90;;;;;;5053487;28;20566;-69
2022/10/14 05:11:36;;;;;;;22.77;16.60;;;13.20;99.90;;;;;;5053505;28;20075;-69
2022/10/14 05:14:02;;;;;;;22.60;16.48;;;13.30;99.90;;;;;;5053566;28;20056;-68
2022/10/14 05:16:31;;;;;;;25.33;16.85;;;13.30;99.90;;;;;;5071765;28;20020;-70
2022/10/14 05:18:57;;;;;;;24.75;17.05;;;13.20;99.90;;;;;;5052851;28;20036;-70
2022/10/14 05:21:24;;;;;;;23.02;16.10;;;13.30;99.90;;;;;;5053345;28;20021;-70
2022/10/14 05:24:06;;;;;;;25.92;17.35;;;13.30;99.90;;;;;;5071480;28;20390;-68
2022/10/14 05:26:34;;;;;;;22.90;15.40;;;13.30;99.90;;;;;;5053137;28;20111;-69
2022/10/14 05:29:04;;;;;;;25.27;16.30;;;13.30;99.90;;;;;;5053276;28;20357;-69
2022/10/14 05:31:30;;;;;;;23.10;16.52;;;13.30;99.90;;;;;;5053396;28;20024;-69
2022/10/14 05:34:05;;;;;;;26.42;17.60;;;13.30;99.90;;;;;;5053038;28;20029;-69
2022/10/14 05:36:31;;;;;;;24.80;17.13;;;13.30;99.90;;;;;;5053079;28;20031;-69
2022/10/14 05:38:57;;;;;;;23.02;16.75;;;13.30;99.90;;;;;;5071008;28;20074;-70
2022/10/14 05:41:26;;;;;;;;;;;13.30;99.90;;;;;;5053694;28;20082;-69
2022/10/14 05:43:52;;;;;;;21.55;15.35;;;13.30;99.90;;;;;;5053222;28;19916;-69
2022/10/14 05:46:19;;;;;;;18.85;14.07;;;13.40;99.90;;;;;;5053015;28;20047;-69
2022/10/14 05:48:50;;;;;;;20.80;14.35;;;13.30;99.90;;;;;;5053217;28;20536;-69
2022/10/14 05:51:19;;;;;;;20.75;15.05;;;13.40;99.90;;;;;;5053186;28;20111;-70
2022/10/14 05:53:49;;;;;;;19.30;15.07;;;13.40;99.90;;;;;;5037107;28;20112;-69
2022/10/14 05:56:17;;;;;;;20.75;15.23;;;13.40;99.90;;;;;;5052842;28;20086;-69
2022/10/14 05:58:44;;;;;;;19.88;14.18;;;13.40;99.90;;;;;;5052869;28;20029;-70
2022/10/14 06:01:11;;;;;;;18.27;12.77;;;13.40;99.90;;;;;;5053018;28;20024;-70
2022/10/14 06:03:40;;;;;;;22.90;14.18;;;13.40;99.90;;;;;;5036701;28;20579;-69
2022/10/14 06:06:11;;;;;;;18.30;13.68;;;13.40;99.90;;;;;;5052542;28;20428;-69
2022/10/14 06:08:37;;;;;;;20.60;14.10;;;13.40;99.90;;;;;;5052562;28;20047;-69
2022/10/14 06:11:03;;;;;;;18.85;13.63;;;13.40;99.90;;;;;;5071065;28;20029;-69
2022/10/14 06:13:29;;;;;;;18.52;14.20;;;13.40;99.90;;;;;;5052510;28;20028;-69
2022/10/14 06:15:56;;;;;;;19.05;14.43;;;13.40;99.90;;;;;;5036163;28;20024;-69
2022/10/14 06:18:22;;;;;;;22.02;14.70;;;13.40;99.90;;;;;;5052858;28;20040;-69
2022/10/14 06:20:53;;;;;;;20.42;14.13;;;13.40;99.90;;;;;;5053060;28;20021;-69
2022/10/14 06:23:19;;;;;;;18.05;13.50;;;13.40;99.90;;;;;;5070697;28;20108;-69
2022/10/14 06:25:45;;;;;;;19.60;13.57;;;13.40;99.90;;;;;;5070483;28;20529;-69
2022/10/14 06:28:11;;;;;;;17.65;13.30;;;13.40;99.90;;;;;;5070678;28;20032;-69
2022/10/14 06:30:37;;;;;;;18.23;13.38;;;13.40;99.90;;;;;;5073342;28;20074;-69
2022/10/14 06:33:03;;;;;;;16.60;12.43;;;13.50;99.90;;;;;;5074424;28;20115;-69
2022/10/14 06:35:29;;;;;;;18.50;13.50;;;13.50;99.90;;;;;;5074725;28;20036;-69
2022/10/14 06:37:55;;;;;;;18.02;12.48;;;13.50;99.90;;;;;;5074726;28;20032;-69
2022/10/14 06:40:21;;;;;;;17.25;12.98;;;13.50;99.90;;;;;;5056375;28;20024;-69
2022/10/14 06:42:47;;;;;;;18.48;12.85;;;13.50;99.90;;;;;;5074460;28;20032;-70
2022/10/14 06:45:13;;;;;;;15.57;12.05;;;13.50;99.90;;;;;;5074444;28;20037;-69
2022/10/14 06:47:39;;;;;;;17.90;12.05;;;13.50;99.90;;;;;;5074293;28;20062;-69
2022/10/14 06:50:06;;;;;;;16.00;10.90;;;13.50;99.90;;;;;;5056347;28;20048;-69
2022/10/14 06:52:31;;;;;;;16.95;11.82;;;13.50;99.90;;;;;;5074034;28;20039;-69
2022/10/14 06:55:00;;;;;;;20.75;12.35;;;13.60;99.90;;;;;;5074249;28;20091;-70
2022/10/14 06:57:26;;;;;;;19.27;11.43;;;13.50;99.90;;;;;;5074055;28;20424;-69
2022/10/14 06:59:52;;;;;;;17.63;11.45;;;13.60;99.90;;;;;;5074167;28;20032;-69
2022/10/14 07:02:18;;;;;;;14.65;11.27;;;13.60;99.90;;;;;;5073954;28;20081;-70
2022/10/14 07:04:45;;;;;;;15.88;10.07;;;13.60;99.90;;;;;;5074115;28;20036;-69
2022/10/14 07:07:11;;;;;;;14.40;10.98;;;13.60;99.90;;;;;;5074221;28;20032;-69
2022/10/14 07:09:38;;;;;;;13.55;10.48;;;13.60;99.90;;;;;;5073715;28;20029;-69
2022/10/14 07:12:04;;;;;;;17.00;10.77;;;13.60;99.90;;;;;;5073917;28;20028;-69
2022/10/14 07:14:30;;;;;;;13.90;10.52;;;13.60;99.90;;;;;;5056197;28;20025;-69
2022/10/14 07:16:57;;;;;;;14.57;9.68;;;13.70;99.90;;;;;;5073766;28;20059;-69
2022/10/14 07:19:23;;;;;;;13.25;10.43;;;13.60;99.90;;;;;;5073915;28;20020;-70
2022/10/14 07:21:49;;;;;;;11.85;8.95;;;13.70;99.90;;;;;;5074153;28;20023;-69
2022/10/14 07:24:15;;;;;;;13.18;9.70;;;13.70;99.90;;;;;;5073886;28;20033;-68
2022/10/14 07:26:40;;;;;;;12.90;9.82;;;13.70;99.90;;;;;;5055665;28;20059;-70
2022/10/14 07:29:07;;;;;;;16.77;9.93;;;13.70;99.90;;;;;;5056007;28;20032;-69
2022/10/14 07:31:33;;;;;;;11.65;9.25;;;13.70;99.90;;;;;;5073424;28;20032;-70
2022/10/14 07:34:00;;;;;;;10.85;8.65;;;13.70;99.90;;;;;;5039080;28;20039;-69
2022/10/14 07:36:27;;;;;;;11.07;8.75;;;13.70;99.90;;;;;;5074015;28;20435;-69
2022/10/14 07:38:53;;;;;;;12.18;8.93;;;13.70;99.90;;;;;;5073374;28;20021;-70
2022/10/14 07:41:22;;;;;;;14.60;9.98;;;13.70;99.90;;;;;;5072493;28;20029;-70
2022/10/14 07:43:51;;;;;;;17.50;10.80;;;13.70;99.90;;;;;;5055807;28;20067;-70
2022/10/14 07:46:28;;;;;;;;;;;13.80;99.90;;;;;;5073639;28;20044;-70
2022/10/14 07:49:00;;;;;;;15.57;8.65;;;13.80;99.90;;;;;;5055381;28;19915;-69
2022/10/14 07:51:27;;;;;;;11.90;8.63;;;13.80;99.90;;;;;;5073096;28;20050;-70
2022/10/14 07:53:54;;;;;;;11.85;8.18;;;13.80;99.90;;;;;;5055262;28;20059;-69
2022/10/14 07:56:21;;;;;;;12.75;8.07;;;13.80;99.90;;;;;;5073536;28;20024;-70
2022/10/14 07:58:47;;;;;;;10.95;7.22;;;13.80;99.90;;;;;;5072953;28;20107;-70
2022/10/14 08:01:14;;;;;;;16.38;9.95;;;13.80;99.90;;;;;;5055028;28;20593;-69
2022/10/14 08:03:41;;;;;;;15.43;10.95;;;13.80;99.90;;;;;;5073382;28;20112;-70
2022/10/14 08:06:08;;;;;;;17.80;10.27;;;13.80;99.90;;;;;;5073213;28;20058;-70
2022/10/14 08:08:34;;;;;;;12.10;8.45;;;13.80;99.90;;;;;;5072722;28;20081;-70
2022/10/14 08:11:09;;;;;;;11.23;8.32;;;13.80;99.90;;;;;;5072730;28;20058;-69
2022/10/14 08:13:35;;;;;;;13.13;8.50;;;13.80;99.90;;;;;;5072923;28;20036;-70
2022/10/14 08:16:02;;;;;;;12.93;7.85;;;13.80;99.90;;;;;;5072867;28;20078;-71
2022/10/14 08:18:28;;;;;;;10.95;8.43;;;13.80;99.90;;;;;;5072697;28;20055;-71
2022/10/14 08:20:54;;;;;;;10.88;7.50;;;13.90;99.90;;;;;;5072612;28;20032;-69
2022/10/14 08:23:20;;;;;;;12.45;8.10;;;13.90;99.90;;;;;;5072716;28;20025;-69
2022/10/14 08:25:47;;;;;;;10.30;7.72;;;13.90;99.90;;;;;;5072459;28;20489;-69
2022/10/14 08:28:13;;;;;;;11.30;8.43;;;13.90;99.90;;;;;;5072685;28;20032;-69
2022/10/14 08:30:39;;;;;;;11.40;8.27;;;14.00;99.90;;;;;;5072210;28;20105;-70
2022/10/14 08:33:05;;;;;;;14.05;8.43;;;14.00;99.90;;;;;;5054346;28;20064;-70
2022/10/14 08:35:31;;;;;;;8.98;7.55;;;14.00;99.90;;;;;;5072533;28;20029;-71
2022/10/14 08:37:59;;;;;;;9.52;7.35;;;14.00;99.90;;;;;;5072249;28;20029;-70
2022/10/14 08:40:27;;;;;;;8.90;7.00;;;14.10;99.90;;;;;;5072414;28;20029;-69
2022/10/14 08:43:21;;;;;;;8.30;6.40;;;14.10;99.90;;;;;;5072126;28;20112;-70
2022/10/14 08:45:51;;;;;;;8.57;5.68;;;14.10;99.90;;;;;;5072295;28;20071;-70
2022/10/14 08:48:22;;;;;;;8.25;6.00;;;14.10;99.90;;;;;;5072213;28;20024;-71
2022/10/14 08:51:08;;;;;;;8.10;6.00;;;14.20;99.90;;;;;;5071934;28;20059;-69
2022/10/14 08:53:55;;;;;;;8.40;6.38;;;14.20;99.90;;;;;;5054096;28;20035;-70
2022/10/14 08:56:22;;;;;;;9.40;5.45;;;14.20;99.90;;;;;;5054055;28;20029;-70
2022/10/14 08:58:50;;;;;;;7.55;5.20;;;14.20;99.90;;;;;;5072035;28;20158;-69
2022/10/14 09:01:16;;;;;;;7.22;4.80;;;14.20;99.90;;;;;;5053855;28;20035;-70
2022/10/14 09:03:42;;;;;;;7.85;5.10;;;14.20;99.90;;;;;;5053914;28;20040;-71
2022/10/14 09:06:23;;;;;;;7.13;4.72;;;14.20;99.90;;;;;;5053750;28;20028;-70
2022/10/14 09:08:51;;;;;;;5.75;4.45;;;14.30;99.90;;;;;;5071632;28;20086;-70
2022/10/14 09:11:20;;;;;;;5.45;4.18;;;14.30;99.90;;;;;;5071607;28;20068;-70
2022/10/14 09:13:53;;;;;;;5.65;4.07;;;14.30;99.90;;;;;;5053549;28;20074;-70
2022/10/14 09:16:24;;;;;;;6.20;4.18;;;14.30;99.90;;;;;;5071816;28;20032;-71
2022/10/14 09:18:59;;;;;;;5.63;3.92;;;14.30;99.90;;;;;;5071398;28;20024;-71
2022/10/14 09:21:35;;;;;;;7.32;3.95;;;14.30;99.90;;;;;;5053647;28;20519;-71
2022/10/14 09:24:31;;;;;;;8.35;4.00;;;14.30;99.90;;;;;;5071438;28;20500;-70
2022/10/14 09:27:04;;;;;;;7.32;3.70;;;14.30;99.90;;;;;;5071366;28;20033;-69
2022/10/14 09:29:39;;;;;;;6.30;3.85;;;14.30;99.90;;;;;;5071713;28;20029;-70
2022/10/14 09:32:09;;;;;;;4.50;3.78;;;14.30;99.90;;;;;;5071491;28;20032;-70
2022/10/14 09:34:43;;;;;;;5.53;3.60;;;14.40;99.90;;;;;;5053798;28;20055;-70
2022/10/14 09:37:18;;;;;;;5.60;3.75;;;14.40;99.90;;;;;;5071230;28;20027;-70
2022/10/14 09:39:45;;;;;;;5.00;3.88;;;14.40;99.90;;;;;;5071036;28;20508;-70
2022/10/14 09:42:17;;;;;;;4.95;3.50;;;14.40;99.90;;;;;;5053151;28;20055;-70
2022/10/14 09:44:43;;;;;;;6.25;3.45;;;14.40;99.90;;;;;;5071138;28;20059;-70
2022/10/14 09:47:12;;;;;;;6.10;3.97;;;14.50;99.90;;;;;;5071085;28;20044;-70
2022/10/14 09:49:46;;;;;;;6.40;4.13;;;14.50;99.90;;;;;;5053139;28;20020;-70
2022/10/14 09:52:23;;;;;;;4.93;3.20;;;14.50;99.90;;;;;;5070980;28;20070;-70
2022/10/14 09:54:59;;;;;;;5.40;3.22;;;14.50;99.90;;;;;;5070982;28;20058;-70
2022/10/14 09:57:26;;;;;;;5.30;3.55;;;14.50;99.90;;;;;;5071323;28;20024;-71
2022/10/14 09:59:59;;;;;;;7.07;3.85;;;14.50;99.90;;;;;;5070867;28;20052;-70
2022/10/14 10:02:55;;;;;;;6.43;4.00;;;14.50;99.90;;;;;;5071019;28;20408;-70
2022/10/14 10:05:33;;;;;;;6.05;3.90;;;14.50;99.90;;;;;;5057520;28;20477;-70
2022/10/14 10:08:13;;;;;;;7.00;4.03;;;14.50;99.90;;;;;;5036185;28;20032;-70
2022/10/14 10:10:39;;;;;;;5.50;3.40;;;14.50;99.90;;;;;;5052710;28;20035;-70
2022/10/14 10:13:30;;;;;;;5.90;3.70;;;14.50;99.90;;;;;;5070833;28;20531;-70
2022/10/14 10:16:03;;;;;;;7.40;3.85;;;14.50;99.90;;;;;;5070593;28;20025;-69
2022/10/14 10:18:29;;;;;;;6.30;3.25;;;14.50;99.90;;;;;;5070774;28;20100;-69
2022/10/14 10:21:06;;;;;;;4.50;3.10;;;14.50;99.90;;;;;;5070762;28;20099;-69
2022/10/14 10:23:34;;;;;;;6.30;3.20;;;14.50;99.90;;;;;;5070763;28;20394;-70
2022/10/14 10:26:24;;;;;;;5.00;3.23;;;14.50;99.90;;;;;;5070742;28;20078;-69
2022/10/14 10:28:52;;;;;;;5.55;3.38;;;14.60;99.90;;;;;;5070563;28;20124;-70
2022/10/14 10:31:23;;;;;;;5.57;3.47;;;14.50;99.90;;;;;;5070590;28;20059;-70
2022/10/14 10:34:08;;;;;;;5.07;3.55;;;14.60;99.90;;;;;;5070610;28;20074;-69
2022/10/14 10:36:56;;;;;;;4.63;3.50;;;14.60;99.90;;;;;;5070616;28;20107;-70
2022/10/14 10:39:41;;;;;;;4.72;3.65;;;14.60;99.90;;;;;;5070497;28;20436;-70
2022/10/14 10:42:28;;;;;;;4.93;3.30;;;14.60;99.90;;;;;;5070842;28;20032;-70
2022/10/14 10:45:27;;;;;;;5.00;3.28;;;14.60;99.90;;;;;;5070576;28;20063;-69
2022/10/14 10:48:06;;;;;;;5.93;4.28;;;14.60;99.90;;;;;;5070308;28;20028;-69
2022/10/14 10:50:45;;;;;;;;;;;14.60;99.90;;;;;;5052872;28;20033;-69
2022/10/14 10:53:49;;;;;;;5.05;3.47;;;14.60;99.90;;;;;;5070289;28;19913;-70
2022/10/14 10:56:37;;;;;;;6.03;3.47;;;14.70;99.90;;;;;;5069886;28;20116;-69
2022/10/14 10:59:18;;;;;;;5.10;3.60;;;14.70;99.90;;;;;;5070370;28;20389;-70
2022/10/14 11:02:19;;;;;;;5.35;3.55;;;14.70;99.90;;;;;;5070237;28;20527;-69
2022/10/14 11:04:56;;;;;;;5.35;3.58;;;14.60;99.90;;;;;;5070382;28;20024;-69
2022/10/14 11:13:55;;;;;;;6.28;3.92;;;14.70;99.90;;;;;;5070117;28;20032;-69
2022/10/14 11:16:28;;;;;;;5.55;3.60;;;14.70;99.90;;;;;;5070637;28;20029;-70
2022/10/14 11:19:17;;;;;;;8.32;4.13;;;14.70;99.90;;;;;;5055623;28;20035;-70
2022/10/14 11:22:04;;;;;;;6.43;4.25;;;14.70;99.90;;;;;;5073641;28;20046;-70
2022/10/14 11:24:57;;;;;;;6.30;4.20;;;14.70;99.90;;;;;;5073855;28;20035;-70
2022/10/14 11:27:30;;;;;;;6.90;4.10;;;14.80;99.90;;;;;;5073511;28;20036;-70
2022/10/14 11:30:14;;;;;;;5.88;3.95;;;14.70;99.90;;;;;;5073438;28;20051;-69
2022/10/14 11:33:01;;;;;;;6.25;4.40;;;14.70;99.90;;;;;;5073553;28;20583;-70
2022/10/14 11:36:15;;;;;;;8.57;5.28;;;14.70;99.90;;;;;;5073622;28;20419;-69
2022/10/14 11:38:47;;;;;;;11.57;5.70;;;14.70;99.90;;;;;;5011172;28;20033;-69
2022/10/14 11:41:50;;;;;;;11.50;6.22;;;14.70;99.90;;;;;;5011125;28;20030;-70
2022/10/14 11:44:31;;;;;;;9.27;6.18;;;14.60;99.90;;;;;;5062404;28;20063;-69
2022/10/14 11:47:03;;;;;;;11.93;6.43;;;14.60;99.90;;;;;;5073295;28;20037;-70
2022/10/14 11:49:33;;;;;;;9.82;6.35;;;14.60;99.90;;;;;;5073122;28;20112;-69
2022/10/14 11:52:06;;;;;;;10.95;7.20;;;14.60;99.90;;;;;;5073307;28;20099;-70
2022/10/14 11:55:00;;;;;;;11.07;6.20;;;14.60;99.90;;;;;;5073195;28;20044;-70
2022/10/14 11:57:44;;;;;;;10.82;6.93;;;14.60;99.90;;;;;;5072859;28;20028;-69
2022/10/14 12:00:17;;;;;;;11.50;6.90;;;14.60;99.90;;;;;;5054756;28;20029;-70
2022/10/14 12:03:15;;;;;;;9.65;6.60;;;14.70;99.90;;;;;;5072784;28;20024;-70
2022/10/14 12:05:58;;;;;;;13.63;7.25;;;14.70;99.90;;;;;;5072791;28;20493;-70
2022/10/14 12:09:16;;;;;;;12.35;7.70;;;14.70;99.90;;;;;;5088053;22;20041;-75
2022/10/14 12:11:50;;;;;;;11.07;7.45;;;14.80;99.90;;;;;;5034958;28;20036;-73
2022/10/14 12:14:32;;;;;;;12.02;7.53;;;14.80;99.90;;;;;;5054658;28;20075;-73
2022/10/14 12:17:04;;;;;;;12.68;7.78;;;14.80;99.90;;;;;;5072659;28;20443;-74
2022/10/14 12:19:30;;;;;;;12.07;7.78;;;14.80;99.90;;;;;;5072566;28;20032;-73
2022/10/14 12:22:20;;;;;;;13.05;7.65;;;14.80;99.90;;;;;;5054618;28;20218;-74
2022/10/14 12:24:55;;;;;;;12.52;7.88;;;14.80;99.90;;;;;;5072496;28;20021;-74
2022/10/14 12:27:24;;;;;;;12.73;8.10;;;14.90;99.90;;;;;;5072172;28;20560;-75
2022/10/14 12:30:11;;;;;;;12.68;8.82;;;14.90;99.90;;;;;;5072267;28;20078;-75
2022/10/14 12:33:25;;;;;;;12.77;8.20;;;14.90;99.90;;;;;;5072294;28;20393;-73
2022/10/14 12:36:00;;;;;;;12.93;8.55;;;14.90;99.90;;;;;;5072339;28;20407;-74
2022/10/14 12:38:28;;;;;;;13.50;8.77;;;15.00;99.90;;;;;;5054429;28;20430;-75
2022/10/14 12:41:59;;;;;;;13.82;8.48;;;14.90;99.90;;;;;;5072046;28;20473;-75
2022/10/14 12:45:01;;;;;;;15.25;8.98;;;14.90;99.90;;;;;;4971255;28;20440;-75
2022/10/14 12:47:30;;;;;;;;;;;15.00;99.90;;;;;;4971260;28;20039;-73
2022/10/14 12:49:58;;;;;;;;;;;15.00;99.90;;;;;;4971169;28;19961;-75
2022/10/14 12:52:30;;;;;;;10.98;7.80;;;15.00;99.90;;;;;;5019236;28;19915;-73
2022/10/14 12:54:58;;;;;;;12.27;8.70;;;15.00;99.90;;;;;;5071988;28;20036;-75
2022/10/14 12:57:33;;;;;;;12.77;8.23;;;15.00;99.90;;;;;;5071775;28;20021;-75
2022/10/14 13:00:06;;;;;;;12.70;8.38;;;15.00;99.90;;;;;;5071643;28;20028;-75
2022/10/14 13:02:36;;;;;;;13.23;8.82;;;15.00;99.90;;;;;;5071658;28;20024;-75
2022/10/14 13:05:06;;;;;;;12.73;8.88;;;15.00;99.90;;;;;;5071979;28;20032;-74
2022/10/14 13:07:44;;;;;;;13.85;8.63;;;15.00;99.90;;;;;;5071638;28;20020;-74
2022/10/14 13:10:37;;;;;;;15.05;9.48;;;15.00;99.90;;;;;;5053688;28;20119;-74